Aérodrome :
LOGIN :

S'inscrire | Disclaimer

   EN    FR    IT 

 










Légende :    VFR   VFR Marginal   IFR   IFR Intensif   IFR Très Intensif
Visi : 
Plafond : 
>= 8 km
>= 3000ft
5 à 8 km
1000 à 3000 ft
1500m à 5 km
500 à 1000 ft
800 à 1500m
200 à 500 ft
< 800m
< 200 ft
Symboles :   Orages  Brouillard  Fortes neiges  Fortes précipitations  Vent > 20 kt
SIGMETs :   Divers  Orages  Givrage  Turbulence  Onde Orograph.  Cendres Volcan.






- Altitude de l'aérodrome : 909 ft
- Code IATA : KSF


EDVK - Kassel Calden

DERNIER METAR :
  • 220850Z 23006KT 200V280 9999 SCT030 18/12 Q1013

METARs EXPIRÉS :
  • 220820Z 25009KT 210V280 9999 FEW029 18/12 Q1013
  • 220750Z 25011KT 220V280 9999 FEW022 17/11 Q1013
  • 220720Z 24010KT 200V280 9999 FEW015 16/12 Q1013
  • 220650Z 21007KT 190V260 9999 FEW011 15/12 Q1013
  • 220620Z 21009KT 9999 FEW011 14/11 Q1013
  • 220550Z 20005KT 160V230 CAVOK 14/11 Q1012
  • 220520Z 21007KT 180V240 9999 FEW030 13/10 Q1012
  • 220450Z AUTO 21007KT 9999 // SCT030/// BKN130/// 13/10 Q1012
  • 220420Z AUTO 23005KT 190V280 9999 // FEW030/// SCT080/// 13/11 Q1012

TAF TAF EDVK
Valide du 22 à 09h jusqu'au 22 à 18h UTC


220800Z 2209/2218 25010KT 9999 SCT035



MET'MAP, la Météo Aéronautique d'un coup d'oeil ! - Copyright ORBIFLY Décembre 2007 - Disclaimer

ORBIFLY MET'MAP TEAM :

Programmation & Développement : Alexandra Zaïnal
Sur une idée originale de : Baudouin d'Aumeries
Soutien technique & logistique : Manuel Goepfert
Assistance : Marc-Olivier Méhu




SOURCES & CREDITS :

   NOAA